createdAt,value
2017-06-27T00:00:45.496Z,91.40
2017-06-27T00:03:13.900Z,91.30
2017-06-27T00:05:41.532Z,91.20
2017-06-27T00:08:09.221Z,91.20
2017-06-27T00:10:37.055Z,91.10
2017-06-27T00:13:05.116Z,90.60
2017-06-27T00:15:32.772Z,90.30
2017-06-27T00:18:00.407Z,91.00
2017-06-27T00:20:28.078Z,91.30
2017-06-27T00:22:55.751Z,91.40
2017-06-27T00:25:23.662Z,90.90
2017-06-27T00:27:51.318Z,91.50
2017-06-27T00:30:18.951Z,91.10
2017-06-27T00:32:46.729Z,91.60
2017-06-27T00:35:14.368Z,92.20
2017-06-27T00:37:42.307Z,91.60
2017-06-27T00:40:09.946Z,91.70
2017-06-27T00:42:37.560Z,92.50
2017-06-27T00:45:05.227Z,91.60
2017-06-27T00:47:32.864Z,91.30
2017-06-27T00:50:00.775Z,90.90
2017-06-27T00:52:28.395Z,91.40
2017-06-27T00:54:56.166Z,91.10
2017-06-27T00:57:23.831Z,91.00
2017-06-27T00:59:51.481Z,90.70
2017-06-27T01:02:20.167Z,90.40
2017-06-27T01:04:47.805Z,90.40
2017-06-27T01:07:15.642Z,90.50
2017-06-27T01:09:44.063Z,91.20
2017-06-27T01:12:11.709Z,91.10
2017-06-27T01:14:39.664Z,91.50
2017-06-27T01:17:07.279Z,90.40
2017-06-27T01:19:34.923Z,90.80
2017-06-27T01:22:02.604Z,92.20
2017-06-27T01:24:30.241Z,91.50
2017-06-27T01:26:58.311Z,91.70
2017-06-27T01:29:26.168Z,91.30
2017-06-27T01:31:53.856Z,91.60
2017-06-27T01:34:22.291Z,89.90
2017-06-27T01:36:49.933Z,89.90
2017-06-27T01:39:17.870Z,90.90
2017-06-27T01:41:45.651Z,90.70
2017-06-27T01:44:14.054Z,90.90
2017-06-27T01:46:41.714Z,90.30
2017-06-27T01:49:09.345Z,89.90
2017-06-27T01:51:37.425Z,89.60
2017-06-27T01:54:05.062Z,90.30
2017-06-27T01:56:32.798Z,90.00
2017-06-27T01:59:00.448Z,89.10
2017-06-27T02:01:28.074Z,89.10
2017-06-27T02:03:56.100Z,89.10
2017-06-27T02:06:23.759Z,89.10
2017-06-27T02:08:52.162Z,89.20
2017-06-27T02:11:19.829Z,88.40
2017-06-27T02:13:47.457Z,88.90
2017-06-27T02:16:15.588Z,88.90
2017-06-27T02:18:43.221Z,89.10
2017-06-27T02:21:11.642Z,89.20
2017-06-27T02:23:39.303Z,89.20
2017-06-27T02:26:07.048Z,88.70
2017-06-27T02:28:35.030Z,89.40
2017-06-27T02:31:02.757Z,89.50
2017-06-27T02:33:30.392Z,89.80
2017-06-27T02:35:58.085Z,89.90
2017-06-27T02:38:26.575Z,88.80
2017-06-27T02:40:54.650Z,88.70
2017-06-27T02:43:22.287Z,89.40
2017-06-27T02:45:49.936Z,89.60
2017-06-27T02:48:17.618Z,89.10
2017-06-27T02:50:45.251Z,88.30
2017-06-27T02:53:13.225Z,90.20
2017-06-27T02:55:40.879Z,90.00
2017-06-27T02:58:08.525Z,90.50
2017-06-27T03:00:36.203Z,90.20
2017-06-27T03:03:03.841Z,89.80
2017-06-27T03:05:32.545Z,90.20
2017-06-27T03:08:00.191Z,90.10
2017-06-27T03:10:36.017Z,89.50
2017-06-27T03:13:03.656Z,89.10
2017-06-27T03:15:31.299Z,88.70
2017-06-27T03:17:58.970Z,89.40
2017-06-27T03:20:26.686Z,88.80
2017-06-27T03:22:54.685Z,88.30
2017-06-27T03:25:22.318Z,87.70
2017-06-27T03:27:49.975Z,88.00
2017-06-27T03:30:17.639Z,88.00
2017-06-27T03:32:45.283Z,87.50
2017-06-27T03:35:13.432Z,87.30
2017-06-27T03:37:41.090Z,87.00
2017-06-27T03:40:08.740Z,87.00
2017-06-27T03:42:36.398Z,86.60
2017-06-27T03:45:04.035Z,86.50
2017-06-27T03:47:31.961Z,86.40
2017-06-27T03:49:59.612Z,86.70
2017-06-27T03:52:27.265Z,86.40
2017-06-27T03:54:54.932Z,87.20
2017-06-27T03:57:22.650Z,86.60
2017-06-27T03:59:50.604Z,87.10
2017-06-27T04:02:19.246Z,86.60
2017-06-27T04:04:46.967Z,86.50
2017-06-27T04:07:14.626Z,86.00
2017-06-27T04:09:43.036Z,87.20
2017-06-27T04:12:10.975Z,87.10
2017-06-27T04:14:38.614Z,85.80
2017-06-27T04:17:06.409Z,84.60
2017-06-27T04:19:34.067Z,85.00
2017-06-27T04:22:01.703Z,84.80
2017-06-27T04:24:29.737Z,85.70
2017-06-27T04:26:57.398Z,85.70
2017-06-27T04:29:25.217Z,84.70
2017-06-27T04:31:52.886Z,84.40
2017-06-27T04:34:20.543Z,84.80
2017-06-27T04:36:48.470Z,84.40
2017-06-27T04:39:16.288Z,83.90
2017-06-27T04:41:44.687Z,83.00
2017-06-27T04:44:12.854Z,83.00
2017-06-27T04:46:40.493Z,82.30
2017-06-27T04:49:08.542Z,81.70
2017-06-27T04:51:36.175Z,81.20
2017-06-27T04:54:03.810Z,82.10
2017-06-27T04:56:31.472Z,81.40
2017-06-27T04:58:59.111Z,81.40
2017-06-27T05:01:27.091Z,79.70
2017-06-27T05:03:54.736Z,79.50
2017-06-27T05:06:22.377Z,79.00
2017-06-27T05:08:50.056Z,79.00
2017-06-27T05:11:17.685Z,78.90
2017-06-27T05:13:45.702Z,79.00
2017-06-27T05:16:13.436Z,76.50
2017-06-27T05:18:41.968Z,75.20
2017-06-27T05:21:09.667Z,75.10
2017-06-27T05:23:37.325Z,76.10
2017-06-27T05:26:05.311Z,75.40
2017-06-27T05:28:32.958Z,74.20
2017-06-27T05:31:00.618Z,72.50
2017-06-27T05:33:29.444Z,71.70
2017-06-27T05:35:57.230Z,70.10
2017-06-27T05:38:25.213Z,70.40
2017-06-27T05:40:53.622Z,70.10
2017-06-27T05:43:22.032Z,68.60
2017-06-27T05:45:49.699Z,68.60
2017-06-27T05:48:23.965Z,68.90
2017-06-27T05:50:51.912Z,68.80
2017-06-27T05:53:19.554Z,68.90
2017-06-27T05:55:47.201Z,68.90
2017-06-27T05:58:14.885Z,68.20
2017-06-27T06:00:42.577Z,66.00
2017-06-27T06:03:11.272Z,63.20
2017-06-27T06:05:38.946Z,63.20
2017-06-27T06:08:06.728Z,59.90
2017-06-27T06:10:35.160Z,58.30
2017-06-27T06:13:02.773Z,58.20
2017-06-27T06:15:30.734Z,59.40
2017-06-27T06:17:58.352Z,58.30
2017-06-27T06:20:26.136Z,55.00
2017-06-27T06:22:53.780Z,51.40
2017-06-27T06:25:21.383Z,47.00
2017-06-27T06:27:50.086Z,44.60
2017-06-27T06:30:17.703Z,44.60
2017-06-27T06:32:46.268Z,40.90
2017-06-27T06:35:14.763Z,39.70
2017-06-27T06:37:46.088Z,39.70
2017-06-27T06:40:14.043Z,42.50
2017-06-27T06:42:41.648Z,41.50
2017-06-27T06:45:09.255Z,38.00
2017-06-27T06:47:36.892Z,38.40
2017-06-27T06:50:04.490Z,37.50
2017-06-27T06:52:32.449Z,37.60
2017-06-27T06:55:00.198Z,35.70
2017-06-27T06:57:28.590Z,33.80
2017-06-27T06:59:58.626Z,31.00
2017-06-27T07:02:26.240Z,31.00
2017-06-27T07:04:54.203Z,29.70
2017-06-27T07:07:21.828Z,32.00
2017-06-27T07:09:50.219Z,30.10
2017-06-27T07:12:17.903Z,30.00
2017-06-27T07:14:45.706Z,29.30
2017-06-27T07:17:13.641Z,28.00
2017-06-27T07:19:41.243Z,29.00
2017-06-27T07:22:08.860Z,27.60
2017-06-27T07:24:36.575Z,29.80
2017-06-27T07:27:05.030Z,29.00
2017-06-27T07:29:33.116Z,28.30
2017-06-27T07:32:00.724Z,28.80
2017-06-27T07:34:28.385Z,29.80
2017-06-27T07:36:56.157Z,30.50
2017-06-27T07:39:23.767Z,30.10
2017-06-27T07:41:51.776Z,28.60
2017-06-27T07:44:19.389Z,29.80
2017-06-27T07:46:47.309Z,30.40
2017-06-27T07:49:15.033Z,32.20
2017-06-27T07:51:42.788Z,33.60
2017-06-27T07:54:10.880Z,34.20
2017-06-27T07:56:39.336Z,35.40
2017-06-27T07:59:07.733Z,34.30
2017-06-27T08:01:35.394Z,34.20
2017-06-27T08:04:03.004Z,34.80
2017-06-27T08:06:31.091Z,33.60
2017-06-27T08:08:58.709Z,34.60
2017-06-27T08:11:26.313Z,33.90
2017-06-27T08:13:53.951Z,33.60
2017-06-27T08:16:21.586Z,32.90
2017-06-27T08:18:49.630Z,33.00
2017-06-27T08:21:17.244Z,28.60
2017-06-27T08:23:44.877Z,28.50
2017-06-27T08:26:13.417Z,25.60
2017-06-27T08:28:41.028Z,25.60
2017-06-27T08:31:09.810Z,26.60
2017-06-27T08:33:37.410Z,26.60
2017-06-27T08:36:05.217Z,25.40
2017-06-27T08:38:32.860Z,26.20
2017-06-27T08:41:00.477Z,23.30
2017-06-27T08:43:29.163Z,24.80
2017-06-27T08:45:57.525Z,23.70
2017-06-27T08:48:26.119Z,24.00
2017-06-27T08:50:53.748Z,24.00
2017-06-27T08:53:21.375Z,23.70
2017-06-27T08:55:50.070Z,23.40
2017-06-27T08:58:17.670Z,23.30
2017-06-27T09:00:45.274Z,24.40
2017-06-27T09:03:12.911Z,24.20
2017-06-27T09:05:40.514Z,24.70
2017-06-27T09:08:08.428Z,26.40
2017-06-27T09:10:36.129Z,25.80
2017-06-27T09:13:03.756Z,27.80
2017-06-27T09:15:31.394Z,29.20
2017-06-27T09:17:59.011Z,30.30
2017-06-27T09:20:27.056Z,27.70
2017-06-27T09:22:54.681Z,28.20
2017-06-27T09:25:22.296Z,28.10
2017-06-27T09:27:49.934Z,28.40
2017-06-27T09:30:17.569Z,29.70
2017-06-27T09:32:45.802Z,28.20
2017-06-27T09:35:13.408Z,28.00
2017-06-27T09:37:41.103Z,27.80
2017-06-27T09:40:08.741Z,28.30
2017-06-27T09:42:36.341Z,29.40
2017-06-27T09:45:03.975Z,30.30
2017-06-27T09:47:31.622Z,29.10
2017-06-27T09:49:59.282Z,30.50
2017-06-27T09:52:27.364Z,31.20
2017-06-27T09:54:55.354Z,32.30
2017-06-27T09:57:23.030Z,33.30
2017-06-27T09:59:50.682Z,34.00
2017-06-27T10:02:18.431Z,33.20
2017-06-27T10:04:46.973Z,33.60
2017-06-27T10:07:14.708Z,33.70
2017-06-27T10:09:42.374Z,33.40
2017-06-27T10:12:10.283Z,33.40
2017-06-27T10:14:37.974Z,32.30
2017-06-27T10:17:05.660Z,34.10
2017-06-27T10:19:34.116Z,33.30
2017-06-27T10:22:02.482Z,32.70
2017-06-27T10:24:30.244Z,32.40
2017-06-27T10:26:58.648Z,32.30
2017-06-27T10:29:26.581Z,32.30
2017-06-27T10:31:54.185Z,32.70
2017-06-27T10:34:21.813Z,32.30
2017-06-27T10:36:49.458Z,33.50
2017-06-27T10:39:17.130Z,32.90
2017-06-27T10:41:44.857Z,32.30
2017-06-27T10:44:13.251Z,32.30
2017-06-27T10:46:41.223Z,32.30
2017-06-27T10:49:08.887Z,33.50
2017-06-27T10:51:36.631Z,34.00
2017-06-27T10:54:04.285Z,34.00
2017-06-27T10:56:31.919Z,34.60
2017-06-27T10:58:59.629Z,35.20
2017-06-27T11:01:27.256Z,35.20
2017-06-27T11:03:55.234Z,34.70
2017-06-27T11:06:23.658Z,35.20
2017-06-27T11:08:51.284Z,35.20
2017-06-27T11:11:18.932Z,36.30
2017-06-27T11:13:46.686Z,37.20
2017-06-27T11:16:14.339Z,35.70
2017-06-27T11:18:41.955Z,36.00
2017-06-27T11:21:09.588Z,35.20
2017-06-27T11:23:37.301Z,35.30
2017-06-27T11:26:04.923Z,35.00
2017-06-27T11:28:32.807Z,35.60
2017-06-27T11:31:00.427Z,36.90
2017-06-27T11:33:28.373Z,36.00
2017-06-27T11:35:56.116Z,35.40
2017-06-27T11:38:23.730Z,35.20
2017-06-27T11:40:51.424Z,35.20
2017-06-27T11:43:19.116Z,37.10
2017-06-27T11:45:47.625Z,34.50
2017-06-27T11:48:15.248Z,34.50
2017-06-27T11:50:43.251Z,34.90
2017-06-27T11:53:10.965Z,33.50
2017-06-27T11:55:38.657Z,32.70
2017-06-27T11:58:06.323Z,33.80
2017-06-27T12:00:46.615Z,34.20
2017-06-27T12:03:26.778Z,33.90
2017-06-27T12:06:06.380Z,34.00
2017-06-27T12:08:34.022Z,33.90
2017-06-27T12:11:01.635Z,35.00
2017-06-27T12:13:30.359Z,36.90
2017-06-27T12:15:57.995Z,36.80
2017-06-27T12:18:25.751Z,35.00
2017-06-27T12:20:53.395Z,35.50
2017-06-27T12:23:21.006Z,36.40
2017-06-27T12:25:48.643Z,36.10
2017-06-27T12:28:17.067Z,36.90
2017-06-27T12:30:45.067Z,36.70
2017-06-27T12:33:12.771Z,35.40
2017-06-27T12:35:40.393Z,35.60
2017-06-27T12:38:08.033Z,38.10
2017-06-27T12:40:35.715Z,36.30
2017-06-27T12:43:03.358Z,38.20
2017-06-27T12:45:30.960Z,38.60
2017-06-27T12:47:58.921Z,38.00
2017-06-27T12:50:26.615Z,38.60
2017-06-27T12:52:54.299Z,41.70
2017-06-27T12:55:21.947Z,45.10
2017-06-27T12:57:49.562Z,47.10
2017-06-27T13:00:17.207Z,47.00
2017-06-27T13:02:44.824Z,54.00
2017-06-27T13:05:12.741Z,51.50
2017-06-27T13:07:40.370Z,53.30
2017-06-27T13:10:08.005Z,57.50
2017-06-27T13:12:35.706Z,64.90
2017-06-27T13:15:03.350Z,66.70
2017-06-27T13:17:31.050Z,66.90
2017-06-27T13:19:58.654Z,58.80
2017-06-27T13:22:27.208Z,68.50
2017-06-27T13:24:54.930Z,68.50
2017-06-27T13:27:22.970Z,67.90
2017-06-27T13:29:50.659Z,68.80
2017-06-27T13:32:18.307Z,73.20
2017-06-27T13:34:46.265Z,69.00
2017-06-27T13:37:13.897Z,68.00
2017-06-27T13:39:41.509Z,66.60
2017-06-27T13:42:10.202Z,67.80
2017-06-27T13:44:37.903Z,68.60
2017-06-27T13:47:06.335Z,62.80
2017-06-27T13:49:35.178Z,62.70
2017-06-27T13:52:03.962Z,64.20
2017-06-27T13:54:31.658Z,64.20
2017-06-27T13:56:59.280Z,67.40
2017-06-27T13:59:27.072Z,65.80
2017-06-27T14:01:55.829Z,60.00
2017-06-27T14:04:23.487Z,60.00
2017-06-27T14:06:51.099Z,64.20
2017-06-27T14:09:19.031Z,63.40
2017-06-27T14:11:46.731Z,65.30
2017-06-27T14:14:14.339Z,60.60
2017-06-27T14:16:42.082Z,59.30
2017-06-27T14:19:09.727Z,59.30
2017-06-27T14:21:37.380Z,62.20
2017-06-27T14:24:05.195Z,60.30
2017-06-27T14:26:33.871Z,57.90
2017-06-27T14:29:01.484Z,58.00
2017-06-27T14:31:29.080Z,57.80
2017-06-27T14:33:56.771Z,60.60
2017-06-27T14:36:24.388Z,58.40
2017-06-27T14:38:52.033Z,55.70
2017-06-27T14:41:19.663Z,58.80
2017-06-27T14:43:47.649Z,55.00
2017-06-27T14:46:15.251Z,54.00
2017-06-27T14:48:42.880Z,59.80
2017-06-27T14:51:11.993Z,52.80
2017-06-27T14:53:39.614Z,52.80
2017-06-27T14:56:07.272Z,55.10
2017-06-27T14:58:34.885Z,54.30
2017-06-27T15:01:02.930Z,53.60
2017-06-27T15:03:30.556Z,55.20
2017-06-27T15:05:58.172Z,56.30
2017-06-27T15:08:26.017Z,54.70
2017-06-27T15:10:53.636Z,54.00
2017-06-27T15:13:22.067Z,53.10
2017-06-27T15:15:49.893Z,52.20
2017-06-27T15:18:17.968Z,53.70
2017-06-27T15:20:45.692Z,51.60
2017-06-27T15:23:13.292Z,51.20
2017-06-27T15:25:40.934Z,51.00
2017-06-27T15:28:08.585Z,48.40
2017-06-27T15:30:36.241Z,46.80
2017-06-27T15:33:03.862Z,45.30
2017-06-27T15:35:31.742Z,46.50
2017-06-27T15:37:59.369Z,47.20
2017-06-27T15:40:27.183Z,47.00
2017-06-27T15:42:54.828Z,45.70
2017-06-27T15:45:22.449Z,44.40
2017-06-27T15:47:51.992Z,42.40
2017-06-27T15:50:19.616Z,42.40
2017-06-27T15:52:47.557Z,44.30
2017-06-27T15:55:15.230Z,43.30
2017-06-27T15:57:42.841Z,43.10
2017-06-27T16:00:10.474Z,44.10
2017-06-27T16:02:38.875Z,46.70
2017-06-27T16:05:06.624Z,46.60
2017-06-27T16:07:34.234Z,47.70
2017-06-27T16:10:02.893Z,46.30
2017-06-27T16:12:30.549Z,46.20
2017-06-27T16:14:58.935Z,46.40
2017-06-27T16:17:26.600Z,46.30
2017-06-27T16:19:54.214Z,46.30
2017-06-27T16:22:21.947Z,46.50
2017-06-27T16:24:50.313Z,45.70
2017-06-27T16:27:18.749Z,46.30
2017-06-27T16:29:46.634Z,46.30
2017-06-27T16:32:15.004Z,45.70
2017-06-27T16:34:42.642Z,45.60
2017-06-27T16:37:11.019Z,47.10
2017-06-27T16:39:38.993Z,47.00
2017-06-27T16:42:06.738Z,48.40
2017-06-27T16:44:34.353Z,46.90
2017-06-27T16:47:02.783Z,48.50
2017-06-27T16:49:30.391Z,48.50
2017-06-27T16:51:58.912Z,46.70
2017-06-27T16:54:26.576Z,48.00
2017-06-27T16:56:55.493Z,47.30
2017-06-27T16:59:23.102Z,47.10
2017-06-27T17:01:50.730Z,45.20
2017-06-27T17:04:18.368Z,45.90
2017-06-27T17:06:45.990Z,47.60
2017-06-27T17:09:13.644Z,46.10
2017-06-27T17:11:41.881Z,47.00
2017-06-27T17:14:09.831Z,48.10
2017-06-27T17:16:38.795Z,47.00
2017-06-27T17:19:06.532Z,46.90
2017-06-27T17:21:34.190Z,47.20
2017-06-27T17:24:01.825Z,46.00
2017-06-27T17:26:29.805Z,47.60
2017-06-27T17:28:57.424Z,49.70
2017-06-27T17:31:26.062Z,48.90
2017-06-27T17:33:54.505Z,49.10
2017-06-27T17:36:22.136Z,49.10
2017-06-27T17:38:50.630Z,48.30
2017-06-27T17:41:18.268Z,50.30
2017-06-27T17:43:45.936Z,49.60
2017-06-27T17:46:13.604Z,48.90
2017-06-27T17:48:41.981Z,50.60
2017-06-27T17:51:12.396Z,50.50
2017-06-27T17:53:40.105Z,49.20
2017-06-27T17:56:07.711Z,50.60
2017-06-27T17:58:35.585Z,53.10
2017-06-27T18:01:03.221Z,51.50
2017-06-27T18:03:31.264Z,51.70
2017-06-27T18:05:58.873Z,50.80
2017-06-27T18:08:27.257Z,51.00
2017-06-27T18:10:55.002Z,51.00
2017-06-27T18:13:22.709Z,50.40
2017-06-27T18:15:51.238Z,52.30
2017-06-27T18:18:18.860Z,51.30
2017-06-27T18:20:47.237Z,52.00
2017-06-27T18:23:15.020Z,51.90
2017-06-27T18:25:42.829Z,51.80
2017-06-27T18:28:10.820Z,51.70
2017-06-27T18:30:38.422Z,52.70
2017-06-27T18:33:06.041Z,53.10
2017-06-27T18:35:33.818Z,53.00
2017-06-27T18:38:02.193Z,53.80
2017-06-27T18:40:30.177Z,53.80
2017-06-27T18:42:57.805Z,57.00
2017-06-27T18:45:25.588Z,58.30
2017-06-27T18:47:53.265Z,60.30
2017-06-27T18:50:20.866Z,60.30
2017-06-27T18:52:48.781Z,61.70
2017-06-27T18:55:16.520Z,62.20
2017-06-27T18:57:45.025Z,63.20
2017-06-27T19:00:12.747Z,63.20
2017-06-27T19:02:40.360Z,62.80
2017-06-27T19:05:07.993Z,62.20
2017-06-27T19:07:35.763Z,63.30
2017-06-27T19:10:03.370Z,62.40
2017-06-27T19:12:31.303Z,63.50
2017-06-27T19:14:58.920Z,64.50
2017-06-27T19:17:26.755Z,65.00
2017-06-27T19:19:54.488Z,66.10
2017-06-27T19:22:22.124Z,66.80
2017-06-27T19:24:54.126Z,67.40
2017-06-27T19:27:21.955Z,66.90
2017-06-27T19:29:50.344Z,69.40
2017-06-27T19:32:18.180Z,69.20
2017-06-27T19:34:45.944Z,69.40
2017-06-27T19:37:13.842Z,69.80
2017-06-27T19:39:41.806Z,68.30
2017-06-27T19:42:09.710Z,69.20
2017-06-27T19:44:37.545Z,69.50
2017-06-27T19:47:05.224Z,69.00
2017-06-27T19:49:33.164Z,69.00
2017-06-27T19:52:00.819Z,69.90
2017-06-27T19:54:28.445Z,70.70
2017-06-27T19:56:56.309Z,71.80
2017-06-27T19:59:24.100Z,71.70
2017-06-27T20:01:52.117Z,71.50
2017-06-27T20:04:19.766Z,72.30
2017-06-27T20:06:47.405Z,73.20
2017-06-27T20:09:15.120Z,74.20
2017-06-27T20:11:42.817Z,74.20
2017-06-27T20:14:10.773Z,75.30
2017-06-27T20:16:38.435Z,75.00
2017-06-27T20:19:06.089Z,74.10
2017-06-27T20:21:33.971Z,72.90
2017-06-27T20:24:01.613Z,73.80
2017-06-27T20:26:29.826Z,73.60
2017-06-27T20:28:57.574Z,75.20
2017-06-27T20:31:25.448Z,75.60
2017-06-27T20:33:53.146Z,76.30
2017-06-27T20:36:20.798Z,75.80
2017-06-27T20:38:48.855Z,76.50
2017-06-27T20:41:16.521Z,76.70
2017-06-27T20:43:44.157Z,77.00
2017-06-27T20:46:11.827Z,77.00
2017-06-27T20:48:39.553Z,78.00
2017-06-27T20:51:07.592Z,77.80
2017-06-27T20:53:35.492Z,77.00
2017-06-27T20:56:03.196Z,75.50
2017-06-27T20:58:30.885Z,76.00
2017-06-27T21:00:58.596Z,75.90
2017-06-27T21:03:26.679Z,76.10
2017-06-27T21:05:54.312Z,75.10
2017-06-27T21:08:22.127Z,74.70
2017-06-27T21:10:49.833Z,74.00
2017-06-27T21:13:17.499Z,74.70
2017-06-27T21:15:46.045Z,73.70
2017-06-27T21:18:14.527Z,72.90
2017-06-27T21:20:42.945Z,72.20
2017-06-27T21:23:10.626Z,72.20
2017-06-27T21:25:38.295Z,72.60
2017-06-27T21:28:07.125Z,72.30
2017-06-27T21:33:09.095Z,71.60
2017-06-27T21:35:36.926Z,71.70
2017-06-27T21:38:04.569Z,69.50
2017-06-27T21:40:32.293Z,70.00
2017-06-27T21:43:00.065Z,70.50
2017-06-27T21:45:28.033Z,69.90
2017-06-27T21:47:55.804Z,70.80
2017-06-27T21:50:24.192Z,71.10
2017-06-27T21:52:51.851Z,70.90
2017-06-27T21:55:19.490Z,70.80
2017-06-27T21:57:47.417Z,71.60
2017-06-27T22:00:15.042Z,72.50
2017-06-27T22:02:42.675Z,72.30
2017-06-27T22:05:10.349Z,73.50
2017-06-27T22:07:37.978Z,73.50
2017-06-27T22:10:06.014Z,74.80
2017-06-27T22:12:33.661Z,75.40
2017-06-27T22:15:01.300Z,74.50
2017-06-27T22:17:28.951Z,75.60
2017-06-27T22:19:56.617Z,76.00
2017-06-27T22:22:24.556Z,76.40
2017-06-27T22:24:52.180Z,76.40
2017-06-27T22:27:19.800Z,76.60
2017-06-27T22:29:48.232Z,77.30
2017-06-27T22:32:15.867Z,77.20
2017-06-27T22:34:43.810Z,77.60
2017-06-27T22:37:11.445Z,77.40
2017-06-27T22:39:39.089Z,77.10
2017-06-27T22:42:06.914Z,75.60
2017-06-27T22:44:34.556Z,76.50
2017-06-27T22:47:02.760Z,76.10
2017-06-27T22:49:30.390Z,75.80
2017-06-27T22:51:58.031Z,76.90
2017-06-27T22:54:25.794Z,76.80
2017-06-27T22:56:53.423Z,77.00
2017-06-27T22:59:21.367Z,78.00
2017-06-27T23:01:48.991Z,77.60
2017-06-27T23:04:17.382Z,78.10
2017-06-27T23:06:45.055Z,78.00
2017-06-27T23:09:12.708Z,79.00
2017-06-27T23:11:40.662Z,79.00
2017-06-27T23:14:08.307Z,78.20
2017-06-27T23:16:35.951Z,78.10
2017-06-27T23:19:03.644Z,79.10
2017-06-27T23:21:32.067Z,80.30
2017-06-27T23:24:00.059Z,80.20
2017-06-27T23:26:27.700Z,81.50
2017-06-27T23:28:55.461Z,82.10
2017-06-27T23:31:23.901Z,82.50
2017-06-27T23:33:51.547Z,82.40
2017-06-27T23:36:19.588Z,81.70
2017-06-27T23:38:47.238Z,83.00
2017-06-27T23:41:14.917Z,82.80
2017-06-27T23:43:43.368Z,83.50
2017-06-27T23:46:11.016Z,83.50
2017-06-27T23:48:39.037Z,83.30
2017-06-27T23:51:06.712Z,83.90
2017-06-27T23:53:34.365Z,82.90
2017-06-27T23:56:02.063Z,84.20
2017-06-27T23:58:29.703Z,84.60
